Observations for PESCARA, Italy (LIBP)

LIBP 191250Z 01007KT 9999 FEW015 SCT080 23/19 Q1017 
LIBP 191150Z 03008KT 350V060 9999 FEW015 SCT080 24/18 Q1016 
LIBP 191050Z VRB02KT 9999 FEW025 SCT075 23/17 Q1017 
LIBP 190950Z VRB02KT 9999 FEW030 SCT070 23/18 Q1017 
LIBP 190850Z 23003KT 180V280 9999 FEW030 SCT070 21/19 Q1017 
LIBP 190750Z VRB01KT 9999 -RA FEW010 SCT025 19/19 Q1017 RERA
LIBP 190733Z VRB02KT 9999 -RA FEW010 SCT025 19/19 Q1017 RERA
LIBP 190650Z 20006KT 6000 RA FEW015 OVC090 19/18 Q1017 RETS 
LIBP 190550Z VRB02KT 8000 -TSRA FEW005 SCT020CB BKN100 19/18 Q1016 RERA 
LIBP 190533Z 29004KT 220V330 8000 -TSRA FEW005 SCT020CB BKN100 19/18 Q1016 RERA
LIBP 190450Z AUTO 02003KT 350V070 6000 +RA OVC039/// 19/18 Q1015
LIBP 190452Z AUTO 36003KT 310V040 4900 +RA OVC039/// 19/18 Q1015
LIBP 190450Z AUTO 02003KT 350V070 6000 +RA OVC039 19/18 Q1015
LIBP 190417Z AUTO 01007KT 340V040 9999 RA OVC026/// 20/17 Q1016
LIBP 190350Z AUTO 01007KT 330V040 9999 BKN019/// OVC033/// 22/18 Q1015  
LIBP 190350Z AUTO 01007KT 330V040 9999 BKN019 OVC033 22/18 Q1015
LIBP 190250Z AUTO 35003KT 9999 FEW009/// SCT091/// 21/20 Q1015  
LIBP 190250Z AUTO 35003KT 9999 FEW009 SCT091 21/20 Q1015
LIBP 190234Z AUTO VRB02KT 8000 SCT009/// SCT089/// BKN190/// 21/20 Q1014
LIBP 190219Z AUTO VRB02KT 9999 BKN009/// OVC086/// 21/20 Q1014
LIBP 190150Z AUTO 21004KT 9999 FEW009/// BKN062/// 21/20 Q1015  
LIBP 190150Z AUTO 21004KT 9999 FEW009 BKN062 21/20 Q1015
LIBP 190050Z AUTO 24003KT 9000 FEW091/// 21/20 Q1015
LIBP 190050Z AUTO 24003KT 9000 FEW091 21/20 Q1015
LIBP 182350Z AUTO 22004KT 9999 BKN014/// 22/21 Q1016
LIBP 182350Z AUTO 22004KT 9999 BKN014 22/21 Q1016
LIBP 182250Z AUTO 26002KT 9999 BKN015/// BKN070/// 23/21 Q1016  
LIBP 182250Z AUTO 26002KT 9999 BKN015 BKN070 23/21 Q1016
LIBP 182150Z AUTO VRB01KT 9999 BKN017/// BKN230/// 23/21 Q1016  
LIBP 182150Z AUTO VRB01KT 9999 BKN017 BKN230 23/21 Q1016
LIBP 182050Z VRB01KT 9999 FEW075 23/21 Q1016
LIBP 181950Z 23001KT 9999 SCT075 23/21 Q1016
LIBP 181850Z VRB01KT 9999 FEW015 BKN080 24/21 Q1016 
LIBP 181750Z 05004KT 9999 BKN012 24/22 Q1015
LIBP 181729Z 05006KT 9999 BKN012 24/22 Q1015
LIBP 181650Z 06006KT 9999 SCT020 25/22 Q1015
LIBP 181550Z 06006KT CAVOK 26/22 Q1014  
LIBP 181450Z 05006KT 020V090 CAVOK 27/21 Q1014  
LIBP 181350Z 03008KT 010V070 CAVOK 27/21 Q1014  
LIBP 181250Z 04008KT 360V070 CAVOK 28/21 Q1015